sensor_id;sensor_type;location;lat;lon;timestamp;pressure;altitude;pressure_sealevel;temperature;humidity
14295;BME280;7231;59.370;18.016;2023-07-20T00:02:25;99952.91;;;13.72;78.51
14295;BME280;7231;59.370;18.016;2023-07-20T00:04:55;99970.50;;;13.76;78.68
14295;BME280;7231;59.370;18.016;2023-07-20T00:07:23;99968.72;;;13.72;78.77
14295;BME280;7231;59.370;18.016;2023-07-20T00:09:51;99961.69;;;13.69;78.98
14295;BME280;7231;59.370;18.016;2023-07-20T00:12:20;99961.69;;;13.68;79.29
14295;BME280;7231;59.370;18.016;2023-07-20T00:14:48;99962.56;;;13.65;79.39
14295;BME280;7231;59.370;18.016;2023-07-20T00:17:20;99966.06;;;13.61;79.94
14295;BME280;7231;59.370;18.016;2023-07-20T00:19:48;99960.81;;;13.58;80.01
14295;BME280;7231;59.370;18.016;2023-07-20T00:22:18;99954.66;;;13.54;79.89
14295;BME280;7231;59.370;18.016;2023-07-20T00:24:45;99958.16;;;13.49;80.31
14295;BME280;7231;59.370;18.016;2023-07-20T00:27:13;99954.63;;;13.47;80.61
14295;BME280;7231;59.370;18.016;2023-07-20T00:29:42;99957.25;;;13.45;80.76
14295;BME280;7231;59.370;18.016;2023-07-20T00:32:10;99957.25;;;13.42;80.66
14295;BME280;7231;59.370;18.016;2023-07-20T00:34:38;99953.75;;;13.39;81.08
14295;BME280;7231;59.370;18.016;2023-07-20T00:37:06;99959.88;;;13.35;81.39
14295;BME280;7231;59.370;18.016;2023-07-20T00:39:35;99956.34;;;13.32;81.51
14295;BME280;7231;59.370;18.016;2023-07-20T00:42:04;99957.22;;;13.30;81.95
14295;BME280;7231;59.370;18.016;2023-07-20T00:44:32;99951.97;;;13.28;81.75
14295;BME280;7231;59.370;18.016;2023-07-20T00:47:01;99944.03;;;13.19;82.38
14295;BME280;7231;59.370;18.016;2023-07-20T00:49:30;99958.97;;;13.23;82.20
14295;BME280;7231;59.370;18.016;2023-07-20T00:51:58;99939.59;;;13.12;82.67
14295;BME280;7231;59.370;18.016;2023-07-20T00:54:27;99958.94;;;13.19;82.83
14295;BME280;7231;59.370;18.016;2023-07-20T00:56:57;99963.31;;;13.17;83.30
14295;BME280;7231;59.370;18.016;2023-07-20T00:59:26;99963.28;;;13.14;83.63
14295;BME280;7231;59.370;18.016;2023-07-20T01:01:54;99955.38;;;13.12;83.95
14295;BME280;7231;59.370;18.016;2023-07-20T01:04:23;99966.78;;;13.11;83.78
14295;BME280;7231;59.370;18.016;2023-07-20T01:06:58;99965.88;;;13.08;84.22
14295;BME280;7231;59.370;18.016;2023-07-20T01:09:33;99960.63;;;13.06;84.36
14295;BME280;7231;59.370;18.016;2023-07-20T01:12:07;99948.31;;;13.00;84.82
14295;BME280;7231;59.370;18.016;2023-07-20T01:14:36;99964.13;;;13.02;85.14
14295;BME280;7231;59.370;18.016;2023-07-20T01:17:05;99951.81;;;12.92;85.64
14295;BME280;7231;59.370;18.016;2023-07-20T01:19:33;99960.59;;;12.95;85.35
14295;BME280;7231;59.370;18.016;2023-07-20T01:22:04;99964.09;;;12.93;85.98
14295;BME280;7231;59.370;18.016;2023-07-20T01:24:59;99963.22;;;12.91;86.38
14295;BME280;7231;59.370;18.016;2023-07-20T01:27:54;99948.28;;;12.85;86.54
14295;BME280;7231;59.370;18.016;2023-07-20T01:30:39;99954.44;;;12.90;86.74
14295;BME280;7231;59.370;18.016;2023-07-20T01:33:15;99939.47;;;12.76;86.89
14295;BME280;7231;59.370;18.016;2023-07-20T01:35:47;99930.69;;;12.71;87.12
14295;BME280;7231;59.370;18.016;2023-07-20T01:38:16;99966.72;;;12.90;86.96
14295;BME280;7231;59.370;18.016;2023-07-20T01:40:45;99959.72;;;12.90;87.14
14295;BME280;7231;59.370;18.016;2023-07-20T01:43:14;99957.06;;;12.90;87.60
14295;BME280;7231;59.370;18.016;2023-07-20T01:45:42;99957.06;;;12.89;87.78
14295;BME280;7231;59.370;18.016;2023-07-20T01:48:10;99949.16;;;12.81;87.77
14295;BME280;7231;59.370;18.016;2023-07-20T01:50:39;99954.44;;;12.89;88.42
14295;BME280;7231;59.370;18.016;2023-07-20T01:53:08;99951.81;;;12.89;88.10
14295;BME280;7231;59.370;18.016;2023-07-20T01:55:36;99946.53;;;12.87;88.33
14295;BME280;7231;59.370;18.016;2023-07-20T01:58:04;99889.41;;;12.54;88.54
14295;BME280;7231;59.370;18.016;2023-07-20T02:00:33;99942.16;;;12.85;88.81
14295;BME280;7231;59.370;18.016;2023-07-20T02:03:01;99905.19;;;12.59;88.93
14295;BME280;7231;59.370;18.016;2023-07-20T02:05:29;99940.38;;;12.84;89.30
14295;BME280;7231;59.370;18.016;2023-07-20T02:07:58;99946.53;;;12.83;89.44
14295;BME280;7231;59.370;18.016;2023-07-20T02:10:26;99943.88;;;12.81;89.80
14295;BME280;7231;59.370;18.016;2023-07-20T02:12:54;99936.84;;;12.79;89.57
14295;BME280;7231;59.370;18.016;2023-07-20T02:15:22;99936.84;;;12.79;89.59
14295;BME280;7231;59.370;18.016;2023-07-20T02:17:50;99923.66;;;12.70;89.96
14295;BME280;7231;59.370;18.016;2023-07-20T02:20:18;99941.25;;;12.80;90.30
14295;BME280;7231;59.370;18.016;2023-07-20T02:22:50;99932.44;;;12.75;90.20
14295;BME280;7231;59.370;18.016;2023-07-20T02:25:19;99933.34;;;12.75;90.56
14295;BME280;7231;59.370;18.016;2023-07-20T02:27:47;99935.97;;;12.75;90.78
14295;BME280;7231;59.370;18.016;2023-07-20T02:30:15;99930.66;;;12.67;91.01
14295;BME280;7231;59.370;18.016;2023-07-20T02:32:44;99919.25;;;12.62;91.27
14295;BME280;7231;59.370;18.016;2023-07-20T02:35:15;99907.78;;;12.51;91.57
14295;BME280;7231;59.370;18.016;2023-07-20T02:37:43;99935.94;;;12.67;91.12
14295;BME280;7231;59.370;18.016;2023-07-20T02:40:12;99939.44;;;12.66;91.60
14295;BME280;7231;59.370;18.016;2023-07-20T02:42:41;99937.66;;;12.65;91.53
14295;BME280;7231;59.370;18.016;2023-07-20T02:45:10;99930.66;;;12.64;91.63
14295;BME280;7231;59.370;18.016;2023-07-20T02:47:38;99933.28;;;12.63;92.22
14295;BME280;7231;59.370;18.016;2023-07-20T02:50:07;99924.47;;;12.56;92.73
14295;BME280;7231;59.370;18.016;2023-07-20T02:52:35;99939.41;;;12.63;93.00
14295;BME280;7231;59.370;18.016;2023-07-20T02:55:04;99933.28;;;12.64;92.95
14295;BME280;7231;59.370;18.016;2023-07-20T02:57:32;99937.66;;;12.65;92.83
14295;BME280;7231;59.370;18.016;2023-07-20T03:00:02;99940.31;;;12.65;92.97
14295;BME280;7231;59.370;18.016;2023-07-20T03:02:32;99936.78;;;12.63;92.97
14295;BME280;7231;59.370;18.016;2023-07-20T03:05:00;99927.09;;;12.55;92.96
14295;BME280;7231;59.370;18.016;2023-07-20T03:07:32;99939.41;;;12.63;93.63
14295;BME280;7231;59.370;18.016;2023-07-20T03:10:00;99919.19;;;12.55;93.63
14295;BME280;7231;59.370;18.016;2023-07-20T03:12:29;99942.06;;;12.65;93.75
14295;BME280;7231;59.370;18.016;2023-07-20T03:14:57;99932.41;;;12.65;93.47
14295;BME280;7231;59.370;18.016;2023-07-20T03:17:27;99932.41;;;12.64;93.66
14295;BME280;7231;59.370;18.016;2023-07-20T03:19:55;99932.41;;;12.62;93.76
14295;BME280;7231;59.370;18.016;2023-07-20T03:22:23;99939.44;;;12.66;93.82
14295;BME280;7231;59.370;18.016;2023-07-20T03:24:51;99929.75;;;12.61;94.16
14295;BME280;7231;59.370;18.016;2023-07-20T03:27:19;99927.13;;;12.62;94.50
14295;BME280;7231;59.370;18.016;2023-07-20T03:29:47;99938.56;;;12.72;94.25
14295;BME280;7231;59.370;18.016;2023-07-20T03:32:15;99940.34;;;12.73;94.18
14295;BME280;7231;59.370;18.016;2023-07-20T03:34:44;99936.84;;;12.76;94.53
14295;BME280;7231;59.370;18.016;2023-07-20T03:37:12;99935.97;;;12.77;94.37
14295;BME280;7231;59.370;18.016;2023-07-20T03:39:42;99938.63;;;12.80;94.44
14295;BME280;7231;59.370;18.016;2023-07-20T03:42:09;99923.69;;;12.76;94.75
14295;BME280;7231;59.370;18.016;2023-07-20T03:44:38;99941.25;;;12.83;94.36
14295;BME280;7231;59.370;18.016;2023-07-20T03:47:06;99924.56;;;12.78;94.54
14295;BME280;7231;59.370;18.016;2023-07-20T03:49:34;99938.66;;;12.87;94.61
14295;BME280;7231;59.370;18.016;2023-07-20T03:52:04;99944.81;;;12.91;94.42
14295;BME280;7231;59.370;18.016;2023-07-20T03:54:32;99943.06;;;12.93;95.02
14295;BME280;7231;59.370;18.016;2023-07-20T03:57:00;99954.47;;;12.96;94.77
14295;BME280;7231;59.370;18.016;2023-07-20T03:59:28;99953.59;;;12.99;94.62
14295;BME280;7231;59.370;18.016;2023-07-20T04:01:56;99939.56;;;13.00;94.32
14295;BME280;7231;59.370;18.016;2023-07-20T04:04:24;99946.56;;;13.04;94.71
14295;BME280;7231;59.370;18.016;2023-07-20T04:06:52;99962.38;;;13.07;94.89
14295;BME280;7231;59.370;18.016;2023-07-20T04:09:21;99943.97;;;13.10;94.51
14295;BME280;7231;59.370;18.016;2023-07-20T04:11:50;99958.91;;;13.14;94.49
14295;BME280;7231;59.370;18.016;2023-07-20T04:14:18;99947.53;;;13.18;94.98
14295;BME280;7231;59.370;18.016;2023-07-20T04:16:46;99943.16;;;13.20;94.85
14295;BME280;7231;59.370;18.016;2023-07-20T04:19:14;99941.41;;;13.22;94.54
14295;BME280;7231;59.370;18.016;2023-07-20T04:21:42;99938.78;;;13.27;94.64
14295;BME280;7231;59.370;18.016;2023-07-20T04:24:10;99944.94;;;13.30;94.55
14295;BME280;7231;59.370;18.016;2023-07-20T04:26:39;99944.06;;;13.33;94.46
14295;BME280;7231;59.370;18.016;2023-07-20T04:29:07;99922.97;;;13.22;94.58
14295;BME280;7231;59.370;18.016;2023-07-20T04:31:36;99940.56;;;13.39;94.28
14295;BME280;7231;59.370;18.016;2023-07-20T04:34:05;99944.09;;;13.44;94.30
14295;BME280;7231;59.370;18.016;2023-07-20T04:36:33;99939.72;;;13.49;94.47
14295;BME280;7231;59.370;18.016;2023-07-20T04:39:01;99940.59;;;13.54;94.06
14295;BME280;7231;59.370;18.016;2023-07-20T04:41:28;99932.69;;;13.48;94.00
14295;BME280;7231;59.370;18.016;2023-07-20T04:44:00;99944.13;;;13.59;94.15
14295;BME280;7231;59.370;18.016;2023-07-20T04:46:28;99930.09;;;13.63;93.74
14295;BME280;7231;59.370;18.016;2023-07-20T04:48:56;99933.59;;;13.67;93.91
14295;BME280;7231;59.370;18.016;2023-07-20T04:51:24;99937.09;;;13.67;93.79
14295;BME280;7231;59.370;18.016;2023-07-20T04:53:52;99931.84;;;13.69;93.85
14295;BME280;7231;59.370;18.016;2023-07-20T04:56:20;99925.69;;;13.73;93.59
14295;BME280;7231;59.370;18.016;2023-07-20T04:58:50;99926.59;;;13.79;93.67
14295;BME280;7231;59.370;18.016;2023-07-20T05:01:19;99922.19;;;13.84;93.57
14295;BME280;7231;59.370;18.016;2023-07-20T05:03:47;99930.97;;;13.92;93.41
14295;BME280;7231;59.370;18.016;2023-07-20T05:06:17;99931.84;;;13.97;93.21
14295;BME280;7231;59.370;18.016;2023-07-20T05:08:45;99931.84;;;14.04;92.93
14295;BME280;7231;59.370;18.016;2023-07-20T05:11:13;99925.69;;;14.09;92.89
14295;BME280;7231;59.370;18.016;2023-07-20T05:13:41;99932.72;;;14.13;92.74
14295;BME280;7231;59.370;18.016;2023-07-20T05:16:09;99934.47;;;14.13;92.41
14295;BME280;7231;59.370;18.016;2023-07-20T05:18:39;99946.78;;;14.14;92.34
14295;BME280;7231;59.370;18.016;2023-07-20T05:21:07;99938.88;;;14.18;92.13
14295;BME280;7231;59.370;18.016;2023-07-20T05:23:35;99930.06;;;14.22;91.98
14295;BME280;7231;59.370;18.016;2023-07-20T05:26:03;99940.63;;;14.24;91.88
14295;BME280;7231;59.370;18.016;2023-07-20T05:28:31;99926.56;;;14.25;91.50
14295;BME280;7231;59.370;18.016;2023-07-20T05:31:02;99936.22;;;14.30;91.49
14295;BME280;7231;59.370;18.016;2023-07-20T05:33:30;99934.44;;;14.34;91.22
14295;BME280;7231;59.370;18.016;2023-07-20T05:36:00;99916.00;;;14.29;91.14
14295;BME280;7231;59.370;18.016;2023-07-20T05:38:27;99931.81;;;14.45;90.85
14295;BME280;7231;59.370;18.016;2023-07-20T05:40:59;99889.63;;;14.33;90.88
14295;BME280;7231;59.370;18.016;2023-07-20T05:43:27;99924.75;;;14.59;90.42
14295;BME280;7231;59.370;18.016;2023-07-20T05:45:55;99911.59;;;14.51;90.18
14295;BME280;7231;59.370;18.016;2023-07-20T05:48:23;99930.03;;;14.64;89.69
14295;BME280;7231;59.370;18.016;2023-07-20T05:50:51;99893.13;;;14.47;89.71
14295;BME280;7231;59.370;18.016;2023-07-20T05:53:21;99929.09;;;14.74;89.58
14295;BME280;7231;59.370;18.016;2023-07-20T05:55:53;99926.47;;;14.77;89.37
14295;BME280;7231;59.370;18.016;2023-07-20T05:58:21;99886.91;;;14.68;89.15
14295;BME280;7231;59.370;18.016;2023-07-20T06:00:50;99926.41;;;14.87;88.67
14295;BME280;7231;59.370;18.016;2023-07-20T06:03:18;99922.91;;;14.88;88.39
14295;BME280;7231;59.370;18.016;2023-07-20T06:05:48;99937.88;;;14.85;88.46
14295;BME280;7231;59.370;18.016;2023-07-20T06:08:16;99935.22;;;14.86;88.06
14295;BME280;7231;59.370;18.016;2023-07-20T06:10:49;99925.53;;;14.90;88.40
14295;BME280;7231;59.370;18.016;2023-07-20T06:13:18;99925.50;;;14.96;88.09
14295;BME280;7231;59.370;18.016;2023-07-20T06:15:46;99924.56;;;15.06;88.27
14295;BME280;7231;59.370;18.016;2023-07-20T06:18:15;99916.59;;;15.15;87.79
14295;BME280;7231;59.370;18.016;2023-07-20T06:20:48;99892.09;;;14.92;87.17
14295;BME280;7231;59.370;18.016;2023-07-20T06:23:16;99922.78;;;15.16;87.36
14295;BME280;7231;59.370;18.016;2023-07-20T06:25:46;99916.59;;;15.15;86.88
14295;BME280;7231;59.370;18.016;2023-07-20T06:28:14;99928.00;;;15.25;87.08
14295;BME280;7231;59.370;18.016;2023-07-20T06:30:42;99930.63;;;15.30;86.41
14295;BME280;7231;59.370;18.016;2023-07-20T06:33:10;99923.63;;;15.21;86.38
14295;BME280;7231;59.370;18.016;2023-07-20T06:35:41;99906.94;;;15.14;86.54
14295;BME280;7231;59.370;18.016;2023-07-20T06:38:09;99925.31;;;15.31;86.55
14295;BME280;7231;59.370;18.016;2023-07-20T06:40:40;99915.56;;;15.45;86.32
14295;BME280;7231;59.370;18.016;2023-07-20T06:43:09;99911.13;;;15.49;85.38
14295;BME280;7231;59.370;18.016;2023-07-20T06:45:41;99916.41;;;15.50;85.24
14295;BME280;7231;59.370;18.016;2023-07-20T06:48:09;99914.63;;;15.54;85.29
14295;BME280;7231;59.370;18.016;2023-07-20T06:50:37;99912.78;;;15.65;85.10
14295;BME280;7231;59.370;18.016;2023-07-20T06:53:05;99868.84;;;15.50;84.68
14295;BME280;7231;59.370;18.016;2023-07-20T06:55:33;99913.50;;;15.85;84.49
14295;BME280;7231;59.370;18.016;2023-07-20T06:58:08;99916.13;;;15.85;84.01
14295;BME280;7231;59.370;18.016;2023-07-20T07:00:37;99916.22;;;15.76;83.83
14295;BME280;7231;59.370;18.016;2023-07-20T07:03:05;99899.44;;;15.82;84.01
14295;BME280;7231;59.370;18.016;2023-07-20T07:05:36;99912.44;;;16.05;84.18
14295;BME280;7231;59.370;18.016;2023-07-20T07:08:05;99910.53;;;16.22;83.07
14295;BME280;7231;59.370;18.016;2023-07-20T07:10:36;99904.31;;;16.24;82.58
14295;BME280;7231;59.370;18.016;2023-07-20T07:13:04;99903.28;;;16.41;82.17
14295;BME280;7231;59.370;18.016;2023-07-20T07:15:32;99907.44;;;16.66;81.66
14295;BME280;7231;59.370;18.016;2023-07-20T07:18:02;99899.44;;;16.71;80.80
14295;BME280;7231;59.370;18.016;2023-07-20T07:20:30;99895.94;;;16.69;80.29
14295;BME280;7231;59.370;18.016;2023-07-20T07:22:58;99913.59;;;16.67;80.34
14295;BME280;7231;59.370;18.016;2023-07-20T07:25:27;99921.50;;;16.71;79.33
14295;BME280;7231;59.370;18.016;2023-07-20T07:27:55;99912.59;;;16.78;79.35
14295;BME280;7231;59.370;18.016;2023-07-20T07:30:23;99912.44;;;16.89;78.42
14295;BME280;7231;59.370;18.016;2023-07-20T07:32:51;99888.72;;;16.81;78.00
14295;BME280;7231;59.370;18.016;2023-07-20T07:35:21;99888.66;;;16.87;76.66
14295;BME280;7231;59.370;18.016;2023-07-20T07:37:49;99903.56;;;16.95;76.26
14295;BME280;7231;59.370;18.016;2023-07-20T07:40:35;99900.25;;;16.76;76.05
14295;BME280;7231;59.370;18.016;2023-07-20T07:43:03;99909.97;;;16.77;76.40
14295;BME280;7231;59.370;18.016;2023-07-20T07:45:34;99906.31;;;16.87;76.53
14295;BME280;7231;59.370;18.016;2023-07-20T07:48:03;99897.47;;;16.88;76.56
14295;BME280;7231;59.370;18.016;2023-07-20T07:50:33;99875.78;;;17.25;78.54
14295;BME280;7231;59.370;18.016;2023-07-20T07:53:01;99894.66;;;18.15;78.38
14295;BME280;7231;59.370;18.016;2023-07-20T07:55:29;99896.88;;;18.85;75.83
14295;BME280;7231;59.370;18.016;2023-07-20T07:57:57;99893.69;;;19.48;73.21
14295;BME280;7231;59.370;18.016;2023-07-20T08:00:25;99895.16;;;19.98;70.28
14295;BME280;7231;59.370;18.016;2023-07-20T08:02:54;99851.19;;;19.46;66.81
14295;BME280;7231;59.370;18.016;2023-07-20T08:05:22;99877.84;;;19.82;67.44
14295;BME280;7231;59.370;18.016;2023-07-20T08:07:51;99883.25;;;20.13;64.59
14295;BME280;7231;59.370;18.016;2023-07-20T08:10:19;99907.78;;;20.24;64.04
14295;BME280;7231;59.370;18.016;2023-07-20T08:12:47;99895.84;;;20.40;62.11
14295;BME280;7231;59.370;18.016;2023-07-20T08:15:15;99886.06;;;20.06;60.35
14295;BME280;7231;59.370;18.016;2023-07-20T08:17:43;99886.84;;;19.76;61.04
14295;BME280;7231;59.370;18.016;2023-07-20T08:20:14;99895.59;;;20.15;61.38
14295;BME280;7231;59.370;18.016;2023-07-20T08:22:44;99889.66;;;20.38;60.24
14295;BME280;7231;59.370;18.016;2023-07-20T08:25:16;99879.94;;;20.69;60.10
14295;BME280;7231;59.370;18.016;2023-07-20T08:27:44;99888.16;;;21.21;59.67
14295;BME280;7231;59.370;18.016;2023-07-20T08:30:13;99871.22;;;21.51;58.39
14295;BME280;7231;59.370;18.016;2023-07-20T08:32:41;99897.53;;;21.90;57.13
14295;BME280;7231;59.370;18.016;2023-07-20T08:35:09;99885.41;;;22.08;55.90
14295;BME280;7231;59.370;18.016;2023-07-20T08:37:37;99878.25;;;22.08;56.04
14295;BME280;7231;59.370;18.016;2023-07-20T08:40:06;99880.00;;;22.84;54.88
14295;BME280;7231;59.370;18.016;2023-07-20T08:42:38;99875.72;;;22.55;52.11
14295;BME280;7231;59.370;18.016;2023-07-20T08:45:08;99891.16;;;21.94;51.25
14295;BME280;7231;59.370;18.016;2023-07-20T08:47:38;99886.66;;;21.42;52.46
14295;BME280;7231;59.370;18.016;2023-07-20T08:50:07;99885.63;;;21.16;52.96
14295;BME280;7231;59.370;18.016;2023-07-20T08:52:36;99896.41;;;20.82;53.57
14295;BME280;7231;59.370;18.016;2023-07-20T08:55:04;99871.28;;;20.61;55.04
14295;BME280;7231;59.370;18.016;2023-07-20T08:57:33;99891.84;;;21.17;55.45
14295;BME280;7231;59.370;18.016;2023-07-20T09:00:04;99906.72;;;21.81;54.37
14295;BME280;7231;59.370;18.016;2023-07-20T09:02:38;99886.25;;;21.54;53.15
14295;BME280;7231;59.370;18.016;2023-07-20T09:05:08;99896.72;;;21.60;53.06
14295;BME280;7231;59.370;18.016;2023-07-20T09:07:39;99855.03;;;21.57;52.41
14295;BME280;7231;59.370;18.016;2023-07-20T09:10:08;99883.59;;;22.08;51.66
14295;BME280;7231;59.370;18.016;2023-07-20T09:12:38;99838.97;;;22.12;50.66
14295;BME280;7231;59.370;18.016;2023-07-20T09:15:10;99862.81;;;22.66;50.95
14295;BME280;7231;59.370;18.016;2023-07-20T09:17:38;99885.88;;;22.93;48.62
14295;BME280;7231;59.370;18.016;2023-07-20T09:20:08;99860.78;;;22.49;49.08
14295;BME280;7231;59.370;18.016;2023-07-20T09:22:38;99891.84;;;22.52;49.70
14295;BME280;7231;59.370;18.016;2023-07-20T09:25:09;99894.84;;;22.67;48.52
14295;BME280;7231;59.370;18.016;2023-07-20T09:27:40;99894.94;;;22.15;49.10
14295;BME280;7231;59.370;18.016;2023-07-20T09:30:14;99792.75;;;21.02;49.43
14295;BME280;7231;59.370;18.016;2023-07-20T09:32:45;99858.53;;;21.59;50.94
14295;BME280;7231;59.370;18.016;2023-07-20T09:35:18;99889.94;;;22.30;49.35
14295;BME280;7231;59.370;18.016;2023-07-20T09:37:51;99860.28;;;21.87;48.54
14295;BME280;7231;59.370;18.016;2023-07-20T09:40:40;99883.41;;;21.86;48.71
14295;BME280;7231;59.370;18.016;2023-07-20T09:43:11;99879.72;;;21.90;49.29
14295;BME280;7231;59.370;18.016;2023-07-20T09:45:43;99873.75;;;22.10;49.22
14295;BME280;7231;59.370;18.016;2023-07-20T09:48:15;99832.25;;;22.50;48.92
14295;BME280;7231;59.370;18.016;2023-07-20T09:50:49;99878.22;;;23.51;47.43
14295;BME280;7231;59.370;18.016;2023-07-20T09:53:18;99855.44;;;24.07;46.33
14295;BME280;7231;59.370;18.016;2023-07-20T09:55:47;99875.22;;;24.45;45.74
14295;BME280;7231;59.370;18.016;2023-07-20T09:58:16;99874.41;;;24.63;44.36
14295;BME280;7231;59.370;18.016;2023-07-20T10:00:46;99869.63;;;24.09;43.76
14295;BME280;7231;59.370;18.016;2023-07-20T10:03:23;99872.28;;;23.67;44.43
14295;BME280;7231;59.370;18.016;2023-07-20T10:06:02;99874.16;;;23.64;44.43
14295;BME280;7231;59.370;18.016;2023-07-20T10:08:36;99864.63;;;23.36;44.76
14295;BME280;7231;59.370;18.016;2023-07-20T10:11:10;99860.22;;;23.35;44.52
14295;BME280;7231;59.370;18.016;2023-07-20T10:13:41;99874.34;;;22.43;45.43
14295;BME280;7231;59.370;18.016;2023-07-20T10:16:15;99866.88;;;21.49;47.05
14295;BME280;7231;59.370;18.016;2023-07-20T10:18:49;99873.81;;;20.95;48.27
14295;BME280;7231;59.370;18.016;2023-07-20T10:21:19;99871.69;;;20.48;49.75
14295;BME280;7231;59.370;18.016;2023-07-20T10:23:52;99882.28;;;20.49;50.12
14295;BME280;7231;59.370;18.016;2023-07-20T10:26:24;99886.09;;;20.40;50.20
14295;BME280;7231;59.370;18.016;2023-07-20T10:28:54;99875.84;;;20.24;49.49
14295;BME280;7231;59.370;18.016;2023-07-20T10:31:25;99880.53;;;20.14;48.82
14295;BME280;7231;59.370;18.016;2023-07-20T10:33:57;99883.91;;;19.87;49.20
14295;BME280;7231;59.370;18.016;2023-07-20T10:36:26;99877.94;;;19.77;49.54
14295;BME280;7231;59.370;18.016;2023-07-20T10:38:58;99869.25;;;19.70;50.53
14295;BME280;7231;59.370;18.016;2023-07-20T10:41:29;99855.72;;;19.80;50.36
14295;BME280;7231;59.370;18.016;2023-07-20T10:44:01;99879.19;;;19.98;48.76
14295;BME280;7231;59.370;18.016;2023-07-20T10:46:41;99892.00;;;20.18;47.93
14295;BME280;7231;59.370;18.016;2023-07-20T10:49:12;99895.91;;;20.38;48.39
14295;BME280;7231;59.370;18.016;2023-07-20T10:51:42;99887.22;;;20.63;47.47
14295;BME280;7231;59.370;18.016;2023-07-20T10:54:35;99834.38;;;20.15;47.24
14295;BME280;7231;59.370;18.016;2023-07-20T10:57:25;99783.28;;;20.02;47.53
14295;BME280;7231;59.370;18.016;2023-07-20T11:00:10;99882.47;;;20.74;47.88
14295;BME280;7231;59.370;18.016;2023-07-20T11:02:47;99882.16;;;20.54;48.61
14295;BME280;7231;59.370;18.016;2023-07-20T11:05:35;99866.50;;;20.09;49.39
14295;BME280;7231;59.370;18.016;2023-07-20T11:08:05;99858.47;;;19.76;50.04
14295;BME280;7231;59.370;18.016;2023-07-20T11:10:33;99894.75;;;19.40;51.26
14295;BME280;7231;59.370;18.016;2023-07-20T11:13:20;99891.50;;;18.88;53.66
14295;BME280;7231;59.370;18.016;2023-07-20T11:16:02;99882.16;;;18.68;55.01
14295;BME280;7231;59.370;18.016;2023-07-20T11:18:34;99889.09;;;18.75;55.44
14295;BME280;7231;59.370;18.016;2023-07-20T11:21:09;99833.13;;;18.40;55.90
14295;BME280;7231;59.370;18.016;2023-07-20T11:23:38;99881.94;;;18.79;56.12
14295;BME280;7231;59.370;18.016;2023-07-20T11:26:06;99876.28;;;18.94;56.44
14295;BME280;7231;59.370;18.016;2023-07-20T11:28:35;99877.66;;;19.13;56.29
14295;BME280;7231;59.370;18.016;2023-07-20T11:31:03;99893.69;;;19.09;56.16
14295;BME280;7231;59.370;18.016;2023-07-20T11:33:33;99853.56;;;18.81;56.26
14295;BME280;7231;59.370;18.016;2023-07-20T11:36:01;99873.34;;;19.08;56.14
14295;BME280;7231;59.370;18.016;2023-07-20T11:38:49;99892.13;;;19.39;55.92
14295;BME280;7231;59.370;18.016;2023-07-20T11:41:18;99882.13;;;19.87;55.14
14295;BME280;7231;59.370;18.016;2023-07-20T11:43:47;99889.63;;;20.41;54.28
14295;BME280;7231;59.370;18.016;2023-07-20T11:46:16;99886.63;;;21.12;53.18
14295;BME280;7231;59.370;18.016;2023-07-20T11:48:45;99882.88;;;22.03;51.77
14295;BME280;7231;59.370;18.016;2023-07-20T11:51:14;99883.50;;;22.86;51.05
14295;BME280;7231;59.370;18.016;2023-07-20T11:53:43;99837.88;;;23.36;47.94
14295;BME280;7231;59.370;18.016;2023-07-20T11:56:12;99886.84;;;23.81;46.64
14295;BME280;7231;59.370;18.016;2023-07-20T11:58:44;99881.00;;;23.72;47.23
14295;BME280;7231;59.370;18.016;2023-07-20T12:01:12;99882.19;;;23.64;46.22
14295;BME280;7231;59.370;18.016;2023-07-20T12:03:42;99884.50;;;23.50;46.03
14295;BME280;7231;59.370;18.016;2023-07-20T12:06:13;99889.16;;;23.69;45.14
14295;BME280;7231;59.370;18.016;2023-07-20T12:08:43;99884.94;;;23.63;44.39
14295;BME280;7231;59.370;18.016;2023-07-20T12:11:11;99878.34;;;23.48;44.14
14295;BME280;7231;59.370;18.016;2023-07-20T12:13:42;99879.59;;;22.94;44.12
14295;BME280;7231;59.370;18.016;2023-07-20T12:16:12;99875.78;;;23.02;44.71
14295;BME280;7231;59.370;18.016;2023-07-20T12:18:42;99874.16;;;22.97;44.28
14295;BME280;7231;59.370;18.016;2023-07-20T12:21:12;99873.97;;;23.02;44.35
14295;BME280;7231;59.370;18.016;2023-07-20T12:23:42;99869.00;;;22.68;44.63
14295;BME280;7231;59.370;18.016;2023-07-20T12:26:10;99869.44;;;22.56;44.89
14295;BME280;7231;59.370;18.016;2023-07-20T12:28:39;99864.75;;;22.62;45.06
14295;BME280;7231;59.370;18.016;2023-07-20T12:31:09;99900.78;;;22.51;45.38
14295;BME280;7231;59.370;18.016;2023-07-20T12:33:37;99869.56;;;22.28;45.81
14295;BME280;7231;59.370;18.016;2023-07-20T12:36:06;99878.94;;;22.40;45.12
14295;BME280;7231;59.370;18.016;2023-07-20T12:38:37;99871.66;;;21.92;45.70
14295;BME280;7231;59.370;18.016;2023-07-20T12:41:05;99872.09;;;21.52;46.80
14295;BME280;7231;59.370;18.016;2023-07-20T12:43:33;99875.41;;;21.32;48.13
14295;BME280;7231;59.370;18.016;2023-07-20T12:46:01;99879.56;;;21.11;48.37
14295;BME280;7231;59.370;18.016;2023-07-20T12:48:29;99883.00;;;20.85;49.28
14295;BME280;7231;59.370;18.016;2023-07-20T12:50:57;99873.66;;;20.72;49.80
14295;BME280;7231;59.370;18.016;2023-07-20T12:53:25;99886.00;;;20.74;49.84
14295;BME280;7231;59.370;18.016;2023-07-20T12:55:55;99887.63;;;20.80;48.92
14295;BME280;7231;59.370;18.016;2023-07-20T12:58:23;99857.38;;;20.81;48.56
14295;BME280;7231;59.370;18.016;2023-07-20T13:00:52;99879.56;;;21.11;47.52
14295;BME280;7231;59.370;18.016;2023-07-20T13:03:20;99883.53;;;21.55;47.21
14295;BME280;7231;59.370;18.016;2023-07-20T13:05:51;99894.41;;;21.77;46.90
14295;BME280;7231;59.370;18.016;2023-07-20T13:08:22;99880.59;;;21.64;45.84
14295;BME280;7231;59.370;18.016;2023-07-20T13:10:52;99861.19;;;21.59;46.00
14295;BME280;7231;59.370;18.016;2023-07-20T13:13:22;99876.28;;;21.87;46.17
14295;BME280;7231;59.370;18.016;2023-07-20T13:15:50;99878.06;;;21.32;46.54